x

Lake Nipissing (45152) Wave Buoy

11:00pm - Mon 31st Aug 2015 All times are CDT. -5 hours from GMT.

  • Sig Wave height 0.3ft
  • Peak Period 2s
  • Wind
    11mph, 13mph gusts
  • Sea Temp 69°f
  • Air Temp 66°f
  • Sea Pressure 1016.7mb
  • Lake Nipissing
  • Lake Nipissing

More Historic Weather Station data

Upgrade to MSW Pro to gain access to the past 30 days of data for over 8000 Wavebouys and Weather Stations around the globe.

Join Pro

Comparision Forecast

View Surf forecast
   
Mon 08/31 11:00pm 0.3ft 2s 11 13 mph 1016.7mb 69f 66f
10:00pm 0.3ft 2s 9 11 mph 1016.8mb 70f 67f
9:00pm  -  3s 9 11 mph 1016.6mb 70f 67f
8:00pm  -  2s 9
mph
1016.3mb 70f 68f
7:00pm  -  2s 7 9 mph 1015.8mb 70f 70f
5:00pm  -  2s 7
mph
1016.1mb 71f 70f
4:00pm  -  2s 2 4 mph 1016.4mb 71f 70f
3:00pm  -  3s 4
mph
1016.3mb 70f 70f
2:00pm  -  3s 4 7 mph 1016.3mb 70f 69f
1:00pm  -  2s 7
mph
1016.3mb 70f 68f
12:00pm 0.3ft 2s 7
mph
1016.7mb 69f 67f
9:00am 0.7ft 2s 9 11 mph 1015.7mb 69f 66f
8:00am 1ft 3s 9 11 mph 1015.2mb 69f 66f
7:00am 1ft 3s 11 13 mph 1015mb 69f 66f
6:00am 1.3ft 3s 13 16 mph 1014.6mb 69f 66f
5:00am 1ft 2s 13 16 mph 1014mb 69f 66f
4:00am 1ft 2s 13 16 mph 1013.9mb 69f 66f
3:00am 0.7ft 2s 13 16 mph 1013.8mb 69f 65f
2:00am 0.7ft 2s 13
mph
1013.8mb 69f 65f
1:00am 0.7ft 2s 11 13 mph 1014.3mb 69f 65f
12:00am 0.7ft 2s 13 18 mph 1014.5mb 69f 64f
Sun 08/30 11:00pm 0.7ft 2s 13 16 mph 1014.3mb 69f 65f
10:00pm 0.7ft 2s 13 16 mph 1014.4mb 69f 65f
9:00pm 0.7ft 2s 13 18 mph 1014.4mb 69f 66f
8:00pm 0.7ft 2s 11 13 mph 1014.5mb 69f 68f
7:00pm 0.7ft 2s 16 18 mph 1014mb 69f 70f
6:00pm 1ft 2s 13 18 mph 1014mb 70f 72f
5:00pm 0.7ft 2s 11 13 mph 1014.7mb 70f 73f
4:00pm 0.7ft 2s 11 18 mph 1014.7mb 70f 74f
3:00pm  -  2s 9 13 mph 1015.1mb 71f 73f
Sat 08/29 6:00pm 1ft 3s 18 22 mph 1017.1mb 69f 65f
5:00pm 1ft 3s 13 20 mph 1017.5mb 69f 65f
4:00pm 1ft 2s 18 20 mph 1017.5mb 69f 65f
3:00pm 1ft 3s 16 20 mph 1017.6mb 69f 66f
2:00pm 1ft 2s 16 18 mph 1017.8mb 69f 66f
1:00pm 0.7ft 2s 13 18 mph 1018mb 69f 66f
12:00pm 0.7ft 2s 11 13 mph 1018.2mb 69f 65f
10:00am 0.3ft 2s 11 13 mph 1018.4mb 69f 65f
9:00am 0.7ft 2s 9 11 mph 1018.4mb 69f 64f
8:00am 0.7ft 2s 13 16 mph 1018.5mb 69f 65f
4:00am 0.7ft 2s 11 16 mph 1018.5mb 69f 63f
3:00am 0.7ft 2s 13 16 mph 1018.4mb 69f 62f
2:00am 0.7ft 2s 16 18 mph 1018.5mb 69f 63f
1:00am 0.7ft 2s 16 18 mph 1018.7mb 69f 64f
12:00am 0.7ft 2s 13 16 mph 1019.2mb 70f 63f
Fri 08/28 11:00pm 0.7ft 2s 13 16 mph 1019.4mb 70f 63f
10:00pm 0.7ft 2s 11 13 mph 1019.6mb 70f 63f
9:00pm 0.7ft 2s 11 13 mph 1019.6mb 70f 64f
8:00pm 0.7ft 2s 11 13 mph 1019.9mb 70f 65f
7:00pm 1ft 2s 11 13 mph 1019.5mb 70f 67f
6:00pm 1.3ft 3s 16 18 mph 1019.2mb 70f 69f
5:00pm 1ft 2s 18 22 mph 1018.9mb 70f 70f
4:00pm 1ft 2s 18 22 mph 1018.7mb 70f 71f
3:00pm 1ft 2s 16 20 mph 1018.7mb 70f 71f
2:00pm 0.7ft 2s 16 20 mph 1019.1mb 70f 70f
1:00pm 0.3ft 2s 13 18 mph 1019.8mb 71f 70f
12:00pm 0.3ft 2s 4 7 mph 1020.6mb 70f 67f
11:00am 0.3ft 2s 9 13 mph 1020.7mb 70f 68f